Time;durP1;ratioP1;P1;durP2;ratioP2;P2;SDS_P1;SDS_P2;PMS_P1;PMS_P2;Temp;Humidity;BMP_temperature;BMP_pressure;BME280_temperature;BME280_humidity;BME280_pressure;Samples;Min_cycle;Max_cycle;Signal;HPM_P1;HPM_P2
2022/05/23 00:00:38;;;;;;;3.87;3.53;;;18.00;71.20;;;18.14;51.32;94540.19;5051623;28;20487;-55
2022/05/23 00:03:05;;;;;;;3.60;3.40;;;17.90;71.10;;;18.07;52.07;94542.81;5055011;28;20456;-56
2022/05/23 00:05:32;;;;;;;3.20;2.90;;;17.80;71.40;;;18.00;52.03;94541.94;5058409;28;20559;-56
2022/05/23 00:08:00;;;;;;;3.10;2.90;;;17.70;71.80;;;17.95;52.22;94541.72;5044381;28;20463;-56
2022/05/23 00:10:27;;;;;;;9.70;3.63;;;17.60;71.70;;;17.88;52.52;94539.81;5048123;28;20911;-55
2022/05/23 00:12:56;;;;;;;3.63;3.37;;;17.60;72.10;;;17.82;52.59;94535.25;5051446;28;20459;-57
2022/05/23 00:15:23;;;;;;;3.77;3.00;;;17.50;72.70;;;17.76;52.60;94536.00;5051735;28;20478;-54
2022/05/23 00:17:51;;;;;;;3.37;3.17;;;17.50;72.60;;;17.72;52.66;94534.75;5056269;28;20462;-56
2022/05/23 00:20:22;;;;;;;3.43;3.13;;;17.40;73.40;;;17.67;53.15;94537.16;5057390;28;20463;-55
2022/05/23 00:22:49;;;;;;;3.27;2.93;;;17.40;73.70;;;17.62;53.19;94523.63;5049569;28;20440;-55
2022/05/23 00:25:16;;;;;;;3.37;3.17;;;17.30;73.80;;;17.55;52.97;94524.38;5048464;28;20537;-56
2022/05/23 00:27:45;;;;;;;3.43;3.23;;;17.30;74.10;;;17.50;53.27;94515.34;5052689;28;20848;-56
2022/05/23 00:30:15;;;;;;;4.00;3.13;;;17.20;74.50;;;17.46;53.63;94517.56;5054969;28;21064;-55
2022/05/23 00:35:27;;;;;;;4.07;3.67;;;17.10;74.90;;;17.48;53.27;94518.19;5060941;28;20521;-54
2022/05/23 00:37:56;;;;;;;4.10;3.37;;;17.10;74.80;;;17.53;53.13;94517.59;5052250;28;20460;-56
2022/05/23 00:40:44;;;;;;;3.60;3.30;;;17.20;74.90;;;17.62;53.80;94518.31;5052315;28;20471;-57
2022/05/23 00:43:14;;;;;;;4.50;3.80;;;17.20;75.20;;;17.69;52.97;94532.47;5055519;28;20451;-54
2022/05/23 00:45:45;;;;;;;7.13;3.03;;;17.30;74.80;;;17.77;53.14;94535.00;5054853;28;20577;-57
2022/05/23 00:48:12;;;;;;;5.00;3.00;;;17.40;74.60;;;17.82;52.90;94524.59;5057681;28;20991;-56
2022/05/23 00:50:41;;;;;;;3.10;2.83;;;17.50;74.40;;;17.87;52.91;94527.50;5065306;28;20999;-55
2022/05/23 00:53:09;;;;;;;3.37;2.97;;;17.50;74.20;;;17.91;52.50;94531.44;5049378;28;20453;-55
2022/05/23 00:55:39;;;;;;;4.40;2.90;;;17.50;73.90;;;17.96;52.85;94535.38;5052524;28;20577;-58
2022/05/23 00:58:08;;;;;;;6.30;3.10;;;17.60;74.10;;;17.95;52.76;94531.06;5054181;28;20462;-56
2022/05/23 01:00:36;;;;;;;4.20;3.90;;;17.60;74.50;;;17.94;52.64;94537.41;5059320;28;20510;-56
2022/05/23 01:03:09;;;;;;;5.97;3.40;;;17.60;75.00;;;17.87;52.93;94538.13;5060533;28;20834;-55
2022/05/23 01:05:37;;;;;;;3.80;3.60;;;17.50;75.00;;;17.79;53.52;94537.47;5056564;28;20511;-57
2022/05/23 01:08:05;;;;;;;7.77;3.50;;;17.50;75.10;;;17.69;53.83;94545.75;5050181;28;20833;-55
2022/05/23 01:10:33;;;;;;;4.40;3.60;;;17.40;75.80;;;17.60;54.06;94553.06;5052619;28;20468;-55
2022/05/23 01:13:00;;;;;;;4.37;3.97;;;17.30;76.20;;;17.51;53.90;94548.91;5057335;28;20455;-54
2022/05/23 01:15:29;;;;;;;6.83;4.57;;;17.20;76.20;;;17.43;53.96;94541.03;5059579;28;20494;-57
2022/05/23 01:17:57;;;;;;;3.77;3.47;;;17.10;76.40;;;17.35;53.97;94534.84;5063464;28;20980;-55
2022/05/23 01:20:26;;;;;;;4.20;3.90;;;17.00;76.60;;;17.27;54.30;94531.47;5057013;28;20473;-56
2022/05/23 01:23:00;;;;;;;4.87;4.47;;;17.00;77.50;;;17.16;54.67;94525.63;5047058;28;21165;-54
2022/05/23 01:25:33;;;;;;;5.77;4.00;;;16.90;77.90;;;17.10;54.68;94525.59;5052137;28;20488;-55
2022/05/23 01:28:00;;;;;;;4.17;3.87;;;16.80;78.00;;;17.02;55.07;94518.56;5056654;28;20512;-57
2022/05/23 01:30:31;;;;;;;3.87;3.57;;;16.80;78.60;;;16.96;55.24;94519.31;5057240;28;20482;-55
2022/05/23 01:32:58;;;;;;;3.80;3.50;;;16.70;79.00;;;16.91;55.35;94516.41;5061682;28;20514;-55
2022/05/23 01:35:25;;;;;;;7.43;3.57;;;16.60;79.40;;;16.84;55.37;94506.50;5052436;28;20542;-54
2022/05/23 01:37:53;;;;;;;3.47;3.27;;;16.60;79.40;;;16.80;55.71;94507.06;5049845;28;20451;-56
2022/05/23 01:40:20;;;;;;;3.73;3.53;;;16.50;80.00;;;16.74;56.16;94508.59;5054289;28;20988;-58
2022/05/23 01:42:49;;;;;;;4.10;3.67;;;16.50;80.70;;;16.67;56.29;94519.16;5057511;28;20959;-57
2022/05/23 01:45:23;;;;;;;5.93;3.50;;;16.40;81.10;;;16.62;56.08;94516.25;5057734;28;20478;-56
2022/05/23 01:47:50;;;;;;;4.80;3.40;;;16.30;80.80;;;16.57;56.40;94520.47;5060641;28;21232;-55
2022/05/23 01:50:17;;;;;;;4.03;3.60;;;16.30;81.70;;;16.54;56.52;94520.84;5053590;28;20479;-56
2022/05/23 01:52:44;;;;;;;3.40;3.20;;;16.30;82.20;;;16.51;56.78;94531.81;5050404;28;20976;-53
2022/05/23 01:55:12;;;;;;;3.77;3.57;;;16.20;82.20;;;16.48;56.96;94522.38;5052771;28;20497;-54
2022/05/23 01:57:39;;;;;;;6.80;4.07;;;16.20;82.80;;;16.47;56.79;94507.47;5057374;28;20455;-55
2022/05/23 02:02:55;;;;;;;3.97;3.67;;;16.20;83.40;;;16.47;57.05;94521.56;5060114;28;20443;-58
2022/05/23 02:05:24;;;;;;;5.00;4.50;;;16.20;83.40;;;16.51;57.26;94518.53;5045214;28;20478;-58
2022/05/23 02:07:52;;;;;;;4.87;3.70;;;16.20;83.80;;;16.55;57.05;94525.16;5050941;28;20452;-56
2022/05/23 02:10:19;;;;;;;3.73;3.40;;;16.20;83.40;;;16.57;57.12;94528.44;5054885;28;20475;-56
2022/05/23 02:12:46;;;;;;;7.73;4.70;;;16.30;83.80;;;16.59;57.19;94518.44;5057624;28;20455;-54
2022/05/23 02:15:15;;;;;;;5.13;4.13;;;16.30;84.00;;;16.62;57.48;94513.59;5061772;28;20532;-57
2022/05/23 02:17:42;;;;;;;7.23;4.70;;;16.30;84.50;;;16.65;57.35;94512.38;5060734;28;20453;-54
2022/05/23 02:20:11;;;;;;;7.20;3.97;;;16.40;84.50;;;16.68;57.63;94525.28;5046646;28;21008;-58
2022/05/23 02:22:39;;;;;;;5.37;4.80;;;16.40;84.60;;;16.71;57.39;94527.56;5052138;28;20840;-56
2022/05/23 02:25:07;;;;;;;11.00;4.97;;;16.40;84.70;;;16.75;57.62;94525.38;5054382;28;20490;-56
2022/05/23 02:27:34;;;;;;;11.03;4.60;;;16.40;85.00;;;16.78;57.78;94525.81;5056667;28;20522;-55
2022/05/23 02:30:03;;;;;;;9.03;4.60;;;16.50;85.40;;;16.81;57.74;94516.69;5061861;28;20466;-57
2022/05/23 02:32:32;;;;;;;8.30;4.60;;;16.50;85.30;;;16.83;57.73;94523.44;5056667;28;20454;-56
2022/05/23 02:35:00;;;;;;;7.53;4.20;;;16.50;85.50;;;16.87;57.74;94520.44;5045800;28;20812;-57
2022/05/23 02:37:28;;;;;;;7.00;4.23;;;16.50;85.50;;;16.90;57.87;94523.56;5051814;28;20961;-54
2022/05/23 02:39:57;;;;;;;7.23;4.43;;;16.60;85.60;;;16.94;57.63;94524.81;5055528;28;20501;-56
2022/05/23 02:42:25;;;;;;;4.77;4.37;;;16.60;85.60;;;16.98;58.03;94533.25;5057650;28;20443;-54
2022/05/23 02:44:53;;;;;;;5.40;4.30;;;16.60;85.90;;;17.00;58.18;94537.34;5060030;28;20482;-57
2022/05/23 02:47:20;;;;;;;10.80;4.53;;;16.70;86.50;;;17.03;58.02;94533.50;5058154;28;20998;-54
2022/05/23 02:49:49;;;;;;;6.87;4.50;;;16.70;85.80;;;17.05;57.71;94528.00;5046018;28;20463;-56
2022/05/23 02:52:27;;;;;;;4.30;3.90;;;16.70;86.00;;;17.08;57.84;94523.13;5051822;28;20463;-56
2022/05/23 02:54:54;;;;;;;5.10;4.50;;;16.80;86.30;;;17.12;58.01;94526.25;5052946;28;20468;-54
2022/05/23 02:57:22;;;;;;;10.23;4.97;;;16.80;86.00;;;17.15;57.52;94528.50;5053999;28;20473;-56
2022/05/23 02:59:49;;;;;;;9.00;3.90;;;16.80;85.90;;;17.18;58.15;94525.44;5049841;28;20475;-55
2022/05/23 03:05:03;;;;;;;4.73;4.23;;;16.90;86.70;;;17.24;58.11;94515.91;5056768;28;20459;-56
2022/05/23 03:07:30;;;;;;;5.07;3.70;;;16.90;86.40;;;17.26;57.82;94509.41;5055660;28;20494;-57
2022/05/23 03:09:57;;;;;;;8.83;4.40;;;16.90;86.60;;;17.28;57.68;94517.19;5054090;28;20462;-56
2022/05/23 03:12:26;;;;;;;7.80;5.17;;;16.90;86.40;;;17.30;58.01;94512.50;5045871;28;20837;-55
2022/05/23 03:14:53;;;;;;;7.23;5.40;;;17.00;86.90;;;17.31;58.04;94512.31;5044104;28;20537;-56
2022/05/23 03:17:20;;;;;;;6.30;5.10;;;17.00;87.60;;;17.34;58.26;94505.78;5059806;28;20526;-57
2022/05/23 03:19:48;;;;;;;13.40;5.10;;;17.00;87.20;;;17.33;57.96;94501.47;5057372;28;20495;-56
2022/05/23 03:27:47;;;;;;;10.03;5.23;;;17.00;87.60;;;17.30;58.60;94504.53;5044660;28;20836;-56
2022/05/23 03:30:16;;;;;;;12.73;5.50;;;17.00;88.00;;;17.29;59.06;94513.50;5057674;28;20502;-56
2022/05/23 03:32:43;;;;;;;9.43;5.20;;;17.00;88.80;;;17.28;58.99;94517.19;5054607;28;20875;-57
2022/05/23 03:35:10;;;;;;;11.07;6.43;;;16.90;88.20;;;17.27;58.62;94518.19;5040690;28;20474;-56
2022/05/23 03:37:39;;;;;;;11.47;5.60;;;16.90;88.20;;;17.27;58.96;94510.22;5050772;28;20864;-55
2022/05/23 03:40:08;;;;;;;13.63;5.73;;;16.90;88.50;;;17.29;59.09;94500.19;5032508;28;20478;-55
2022/05/23 03:42:36;;;;;;;7.17;5.30;;;16.90;88.60;;;17.29;58.70;94492.22;5053618;28;20452;-54
2022/05/23 03:45:05;;;;;;;8.00;4.80;;;16.90;88.70;;;17.30;58.74;94499.19;5054939;28;20460;-57
2022/05/23 03:47:32;;;;;;;18.33;5.93;;;16.90;88.70;;;17.33;59.06;94509.44;5050965;28;20580;-56
2022/05/23 03:49:59;;;;;;;8.63;4.90;;;17.00;88.70;;;17.36;58.70;94511.72;5047430;28;20483;-55
2022/05/23 03:52:27;;;;;;;10.40;5.27;;;17.00;88.80;;;17.38;58.98;94517.66;5042486;28;20928;-56
2022/05/23 03:54:55;;;;;;;11.07;4.83;;;17.00;89.00;;;17.43;59.06;94514.44;5050219;28;20480;-55
2022/05/23 03:57:23;;;;;;;4.83;4.40;;;17.10;89.00;;;17.47;59.39;94516.53;5057990;28;20479;-56
2022/05/23 03:59:52;;;;;;;9.73;5.57;;;17.10;89.40;;;17.52;58.65;94511.47;5047602;28;20477;-55
2022/05/23 04:02:20;;;;;;;9.20;4.60;;;17.20;89.10;;;17.58;58.84;94517.03;5051414;28;20963;-55
2022/05/23 04:04:48;;;;;;;5.80;4.60;;;17.20;89.10;;;17.62;58.70;94516.47;5052225;28;20471;-56
2022/05/23 04:07:15;;;;;;;8.70;4.83;;;17.30;88.90;;;17.67;58.35;94511.38;5056205;28;21002;-57
2022/05/23 04:09:42;;;;;;;7.13;4.83;;;17.30;88.70;;;17.73;58.67;94507.13;5061201;28;20471;-57
2022/05/23 04:12:11;;;;;;;12.17;4.50;;;17.40;89.00;;;17.76;58.43;94512.06;5059192;28;20454;-59
2022/05/23 04:14:38;;;;;;;9.13;4.77;;;17.40;88.60;;;17.82;58.37;94513.97;5056820;28;20536;-59
2022/05/23 04:17:06;;;;;;;6.13;5.07;;;17.50;88.50;;;17.91;57.93;94517.34;5045678;28;20968;-59
2022/05/23 04:19:33;;;;;;;5.90;4.73;;;17.60;88.10;;;18.04;57.63;94516.59;5047020;28;20482;-54
2022/05/23 04:22:01;;;;;;;4.70;4.27;;;17.70;87.90;;;18.16;57.26;94515.03;5057677;28;20461;-57
2022/05/23 04:24:29;;;;;;;7.10;4.30;;;17.80;87.50;;;18.27;57.82;94514.47;5055942;28;20998;-58
2022/05/23 04:26:57;;;;;;;5.80;4.40;;;17.90;87.10;;;18.38;57.41;94514.97;5053326;28;20562;-58
2022/05/23 04:29:26;;;;;;;5.40;4.90;;;18.00;87.00;;;18.48;57.23;94523.38;5051334;28;20506;-59
2022/05/23 04:31:53;;;;;;;7.70;4.80;;;18.10;86.90;;;18.54;56.95;94517.28;5044811;28;20455;-58
2022/05/23 04:37:05;;;;;;;10.87;3.60;;;18.20;85.80;;;18.69;56.48;94516.34;5047024;28;20454;-60
2022/05/23 04:39:32;;;;;;;8.27;5.10;;;18.30;85.70;;;18.73;56.92;94506.91;5056412;28;20637;-56
2022/05/23 04:42:03;;;;;;;4.80;4.50;;;18.30;85.60;;;18.76;56.51;94507.34;5050556;28;20459;-57
2022/05/23 04:44:31;;;;;;;6.63;5.20;;;18.40;85.50;;;18.79;56.32;94498.94;5051252;28;20466;-58
2022/05/23 04:49:49;;;;;;;5.60;4.80;;;18.40;84.70;;;18.85;56.20;94486.69;5048362;28;20474;-60
2022/05/23 04:52:19;;;;;;;16.63;5.87;;;18.50;84.70;;;18.90;56.39;94494.91;5051049;28;20451;-59
2022/05/23 04:54:47;;;;;;;20.53;5.67;;;18.50;84.80;;;18.98;55.91;94496.59;5050936;28;20479;-56
2022/05/23 04:57:14;;;;;;;11.67;4.50;;;18.60;84.80;;;19.08;56.39;94490.84;5050045;28;20933;-55
2022/05/23 04:59:44;;;;;;;24.40;7.53;;;18.70;84.90;;;19.22;56.87;94507.69;5054405;28;20475;-54
2022/05/23 05:02:11;;;;;;;6.60;4.97;;;18.80;85.80;;;19.34;56.18;94498.88;5052693;28;20479;-54
2022/05/23 05:04:38;;;;;;;13.70;4.53;;;18.90;85.40;;;19.44;56.27;94501.19;5051376;28;20475;-55
2022/05/23 05:07:06;;;;;;;5.40;4.90;;;19.00;85.10;;;19.48;55.70;94497.06;5050639;28;20567;-55
2022/05/23 05:09:33;;;;;;;10.23;5.00;;;19.10;84.70;;;19.51;56.34;94493.97;5047270;28;20475;-56
2022/05/23 05:12:00;;;;;;;12.67;5.07;;;19.10;84.60;;;19.53;55.58;94481.28;5052531;28;20451;-55
2022/05/23 05:14:28;;;;;;;10.30;5.83;;;19.20;84.20;;;19.63;55.50;94485.38;5058243;28;20478;-55
2022/05/23 05:16:57;;;;;;;7.13;4.70;;;19.20;84.00;;;19.73;55.86;94479.63;5053531;28;20539;-55
2022/05/23 05:19:24;;;;;;;6.53;4.37;;;19.30;83.80;;;19.87;55.07;94479.44;5052523;28;20817;-56
2022/05/23 05:21:51;;;;;;;11.97;4.27;;;19.40;83.80;;;20.02;55.54;94476.53;5049253;28;20878;-56
2022/05/23 05:24:19;;;;;;;6.60;5.17;;;19.60;83.80;;;20.17;54.89;94475.47;5058012;28;20566;-56
2022/05/23 05:26:46;;;;;;;9.30;6.67;;;19.70;83.30;;;20.35;54.82;94474.81;5055606;28;20482;-57
2022/05/23 05:29:13;;;;;;;8.53;6.73;;;19.90;82.90;;;20.51;54.34;94462.84;5055047;28;20471;-57
2022/05/23 05:31:44;;;;;;;11.33;7.90;;;20.00;82.20;;;20.73;53.98;94466.91;5052250;28;20444;-57
2022/05/23 05:34:17;;;;;;;10.87;7.60;;;20.20;81.80;;;20.95;53.68;94474.59;5047257;28;20464;-57
2022/05/23 05:36:46;;;;;;;8.70;6.23;;;20.40;81.10;;;21.20;52.86;94481.88;5055343;28;21031;-56
2022/05/23 05:39:14;;;;;;;10.03;4.67;;;20.70;79.90;;;21.40;52.24;94481.75;5059402;28;20490;-54
2022/05/23 05:41:45;;;;;;;11.70;4.30;;;20.90;78.70;;;21.64;51.60;94485.50;5057908;28;20570;-55
2022/05/23 05:44:15;;;;;;;3.93;3.20;;;21.10;77.20;;;21.76;51.28;94490.97;5052218;28;20470;-55
2022/05/23 05:46:43;;;;;;;7.70;4.10;;;21.20;76.10;;;21.84;50.71;94494.19;5050351;28;20452;-55
2022/05/23 05:49:15;;;;;;;7.07;3.83;;;21.30;75.60;;;21.87;51.01;94500.16;5053074;28;20862;-54
2022/05/23 05:51:42;;;;;;;10.93;4.43;;;21.40;75.50;;;21.85;51.18;94495.81;5057339;28;20448;-57
2022/05/23 05:54:13;;;;;;;6.50;3.80;;;21.40;75.40;;;21.82;50.60;94503.47;5055830;28;20451;-56
2022/05/23 05:56:43;;;;;;;5.87;3.40;;;21.40;74.60;;;21.74;50.63;94493.88;5040402;28;20855;-56
2022/05/23 05:59:10;;;;;;;6.37;3.20;;;21.30;74.10;;;21.69;50.47;94504.41;5049059;28;20489;-56
2022/05/23 06:01:37;;;;;;;8.27;3.80;;;21.30;73.70;;;21.63;50.43;94494.56;5049695;28;20455;-57
2022/05/23 06:04:05;;;;;;;8.20;5.73;;;21.20;73.10;;;21.56;50.35;94501.81;5060300;28;20942;-58
2022/05/23 06:12:04;;;;;;;9.17;5.20;;;21.10;73.40;;;21.48;50.51;94486.81;5048811;28;20422;-56
2022/05/23 06:14:31;;;;;;;22.00;5.23;;;21.10;73.60;;;21.54;50.54;94483.31;5053135;28;20478;-57
2022/05/23 06:16:59;;;;;;;7.23;3.73;;;21.10;73.70;;;21.60;50.17;94484.31;5058832;28;20571;-55
2022/05/23 06:19:26;;;;;;;9.63;3.37;;;21.10;72.90;;;21.65;49.75;94477.25;5052363;28;20464;-57
2022/05/23 06:21:55;;;;;;;8.00;2.77;;;21.20;72.20;;;21.77;49.57;94476.56;5049981;28;20929;-57
2022/05/23 06:24:23;;;;;;;3.20;2.20;;;21.30;71.20;;;21.95;48.71;94483.78;5046203;28;20479;-57
2022/05/23 06:26:50;;;;;;;6.43;3.20;;;21.40;70.40;;;22.08;48.49;94472.16;5044543;28;21026;-56
2022/05/23 06:29:17;;;;;;;6.80;3.87;;;21.60;70.00;;;22.27;48.47;94472.97;5057779;28;20479;-54
2022/05/23 06:31:47;;;;;;;5.00;3.47;;;21.70;69.80;;;22.52;47.59;94467.56;5056240;28;20458;-55
2022/05/23 06:34:15;;;;;;;6.53;3.50;;;21.90;68.40;;;22.85;47.57;94455.63;5052163;28;21025;-54
2022/05/23 06:36:42;;;;;;;4.97;3.77;;;22.20;67.60;;;23.19;46.86;94459.53;5050012;28;20510;-56
2022/05/23 06:39:11;;;;;;;10.33;4.47;;;22.60;66.50;;;23.52;45.85;94460.91;5042362;28;20448;-57
2022/05/23 06:41:38;;;;;;;9.73;3.80;;;22.90;65.30;;;23.87;45.31;94456.63;5056068;28;20517;-57
2022/05/23 06:44:06;;;;;;;9.60;4.00;;;23.20;64.50;;;24.23;45.49;94457.44;5059447;28;20463;-57
2022/05/23 06:46:34;;;;;;;16.93;3.97;;;23.50;63.60;;;24.57;44.26;94452.25;5050992;28;20524;-57
2022/05/23 06:49:01;;;;;;;8.63;4.03;;;23.90;62.30;;;24.89;43.74;94444.59;5050606;28;20497;-55
2022/05/23 06:51:28;;;;;;;13.40;3.90;;;24.20;61.50;;;25.22;42.48;94459.19;5045390;28;20529;-56
2022/05/23 06:53:56;;;;;;;5.00;3.13;;;24.50;59.10;;;25.49;42.64;94448.66;5051778;28;20443;-53
2022/05/23 06:56:27;;;;;;;5.97;3.57;;;24.80;58.50;;;25.74;42.31;94453.63;5057317;28;20598;-58
2022/05/23 06:58:55;;;;;;;6.73;3.00;;;25.10;58.00;;;26.03;41.73;94453.59;5054844;28;20965;-55
2022/05/23 07:01:22;;;;;;;9.37;3.50;;;25.30;57.30;;;26.31;40.90;94459.91;5051071;28;20459;-55
2022/05/23 07:03:50;;;;;;;4.33;3.93;;;25.60;55.80;;;26.61;40.73;94458.69;5047741;28;20452;-57
2022/05/23 07:14:33;;;;;;;6.80;2.70;;;26.60;53.20;;;27.52;38.66;94457.31;5048309;28;20494;-56
2022/05/23 07:17:02;;;;;;;4.60;1.83;;;26.80;52.50;;;27.69;36.68;94459.91;5046382;28;20447;-57
2022/05/23 07:19:29;;;;;;;4.57;2.00;;;27.00;48.90;;;27.86;35.40;94449.75;5062561;28;20459;-55
2022/05/23 07:21:59;;;;;;;2.90;1.30;;;27.10;48.20;;;27.99;34.40;94443.13;5057944;28;20482;-55
2022/05/23 07:24:28;;;;;;;1.67;1.57;;;27.30;46.30;;;28.13;36.07;94453.50;5048148;28;20898;-56
2022/05/23 07:26:56;;;;;;;2.13;1.90;;;27.40;47.30;;;28.24;35.25;94449.78;5051692;28;20560;-55
2022/05/23 07:29:24;;;;;;;3.03;1.27;;;27.60;47.00;;;28.34;34.92;94440.94;5047549;28;20467;-57
2022/05/23 07:31:52;;;;;;;10.60;2.00;;;27.70;45.90;;;28.47;32.49;94447.75;5055413;28;20459;-57
2022/05/23 07:34:19;;;;;;;2.60;1.80;;;27.80;43.30;;;28.52;34.18;94447.78;5057765;28;20470;-57
2022/05/23 07:36:48;;;;;;;3.43;1.60;;;27.80;45.00;;;28.63;34.20;94440.53;5053869;28;20455;-57
2022/05/23 07:39:15;;;;;;;7.30;1.90;;;27.90;44.60;;;28.70;33.87;94447.34;5052461;28;20475;-58
2022/05/23 07:41:43;;;;;;;2.60;1.80;;;28.00;43.90;;;28.77;33.44;94444.41;5044777;28;20545;-56
2022/05/23 07:44:12;;;;;;;9.00;1.93;;;28.10;44.60;;;28.92;33.88;94462.59;5054820;28;21187;-55
2022/05/23 07:46:42;;;;;;;7.03;1.60;;;28.20;44.00;;;29.02;33.47;94461.81;5058931;28;20895;-58
2022/05/23 07:49:09;;;;;;;4.20;1.77;;;28.40;43.50;;;29.14;32.49;94456.97;5054545;28;20604;-57
2022/05/23 07:51:36;;;;;;;2.33;1.53;;;28.50;43.00;;;29.25;31.90;94453.25;5053513;28;20461;-57
2022/05/23 08:02:31;;;;;;;2.43;1.37;;;29.00;41.70;;;29.77;31.60;94456.03;4990278;28;20488;-56
2022/05/23 08:04:59;;;;;;;2.00;1.73;;;29.10;42.10;;;29.90;30.84;94463.66;5030545;28;20975;-57
2022/05/23 08:07:28;;;;;;;13.80;1.50;;;29.20;40.20;;;29.93;31.09;94454.16;5044218;28;20521;-57
2022/05/23 08:09:56;;;;;;;1.90;1.60;;;29.30;40.70;;;29.95;31.40;94460.94;5054758;28;20548;-56
2022/05/23 08:12:23;;;;;;;3.20;1.53;;;29.30;40.50;;;30.14;31.29;94452.25;5059048;28;20482;-57
2022/05/23 08:14:52;;;;;;;2.83;1.77;;;29.50;40.30;;;30.33;31.21;94453.28;5055106;28;20470;-56
2022/05/23 08:17:19;;;;;;;9.20;2.20;;;29.60;40.30;;;30.38;31.01;94456.00;5035516;28;20927;-56
2022/05/23 08:19:47;;;;;;;2.13;1.60;;;29.70;40.10;;;30.33;30.21;94450.56;5048742;28;20474;-56
2022/05/23 08:22:14;;;;;;;4.53;1.80;;;29.70;39.90;;;30.32;31.03;94453.56;5051715;28;20455;-55
2022/05/23 08:24:41;;;;;;;2.70;1.50;;;29.70;40.00;;;30.38;30.38;94455.16;5060353;28;20975;-56
2022/05/23 08:27:09;;;;;;;2.80;1.17;;;29.80;39.90;;;30.52;29.83;94450.00;5054081;28;20850;-55
2022/05/23 08:29:37;;;;;;;2.00;1.40;;;29.90;39.30;;;30.67;29.21;94444.53;5052896;28;20502;-56
2022/05/23 08:32:06;;;;;;;4.23;1.80;;;30.00;39.20;;;30.93;29.65;94445.25;5049731;28;20454;-56
2022/05/23 08:34:34;;;;;;;7.83;1.57;;;30.20;38.90;;;31.22;29.18;94433.75;5048398;28;21025;-57
2022/05/23 08:37:01;;;;;;;4.00;1.73;;;30.50;38.60;;;31.35;28.83;94445.06;5057781;28;20478;-56
2022/05/23 08:39:29;;;;;;;2.03;1.47;;;30.60;38.30;;;31.33;29.10;94439.91;5056397;28;20467;-56
2022/05/23 08:41:56;;;;;;;3.50;1.30;;;30.70;37.70;;;31.23;29.35;94439.97;5051055;28;20533;-57
2022/05/23 08:44:44;;;;;;;3.43;1.80;;;30.70;37.60;;;31.12;28.00;94432.97;5049854;28;20229;-55
2022/05/23 08:47:21;;;;;;;5.87;1.20;;;30.60;37.20;;;30.98;28.39;94433.56;5049022;28;20877;-57
2022/05/23 08:50:02;;;;;;;2.93;1.57;;;30.50;37.50;;;30.82;27.98;94438.25;5058052;28;20485;-57
2022/05/23 08:52:34;;;;;;;5.50;1.57;;;30.30;36.60;;;30.66;28.11;94432.06;5052249;28;20224;-56
2022/05/23 08:55:03;;;;;;;4.03;1.60;;;30.20;36.60;;;30.44;28.46;94440.53;5053389;28;20308;-56
2022/05/23 08:57:38;;;;;;;2.23;1.30;;;30.00;37.50;;;30.20;27.70;94424.03;5049542;28;20617;-56
2022/05/23 09:00:09;;;;;;;3.33;1.73;;;29.80;36.30;;;30.00;28.52;94436.53;5056825;28;20612;-55
2022/05/23 09:02:44;;;;;;;3.60;1.00;;;29.50;36.50;;;29.78;28.01;94422.41;5054637;28;20446;-56
2022/05/23 09:05:15;;;;;;;1.63;1.53;;;29.30;36.50;;;29.54;28.79;94431.06;5058449;28;20927;-56
2022/05/23 09:07:47;;;;;;;5.97;1.63;;;29.10;36.80;;;29.29;28.83;94426.44;5056187;28;20473;-57
2022/05/23 09:10:19;;;;;;;8.23;1.37;;;28.90;37.10;;;29.15;28.94;94420.69;5050973;28;21069;-55
2022/05/23 09:12:46;;;;;;;2.40;1.70;;;28.70;37.70;;;29.12;28.51;94424.72;5054086;28;20919;-56
2022/05/23 09:15:14;;;;;;;4.30;1.30;;;28.60;37.10;;;29.12;28.79;94432.88;5063201;28;20477;-57
2022/05/23 09:17:45;;;;;;;8.83;1.40;;;28.60;37.60;;;29.04;27.92;94424.47;5046040;28;20455;-56
2022/05/23 09:20:14;;;;;;;1.50;1.40;;;28.50;37.40;;;28.93;29.24;94416.31;5046889;28;20475;-56
2022/05/23 09:22:47;;;;;;;2.50;1.13;;;28.40;37.40;;;28.77;28.38;94414.66;5052270;28;20452;-56
2022/05/23 09:25:17;;;;;;;11.70;1.80;;;28.30;37.20;;;28.61;29.84;94406.47;5049821;28;21060;-57
2022/05/23 09:27:48;;;;;;;1.57;1.47;;;28.20;38.20;;;28.54;29.64;94413.97;5062965;28;20451;-58
2022/05/23 09:30:19;;;;;;;2.27;1.53;;;28.00;38.10;;;28.47;30.42;94410.69;5052508;28;20550;-57
2022/05/23 09:32:53;;;;;;;1.43;1.30;;;28.00;39.10;;;28.37;29.28;94416.06;5055673;28;20455;-56
2022/05/23 09:35:22;;;;;;;2.30;1.60;;;27.90;38.50;;;28.22;30.04;94412.16;5052634;28;20494;-56
2022/05/23 09:38:05;;;;;;;2.93;1.70;;;27.70;37.90;;;28.06;29.63;94405.88;5045029;28;20469;-56
2022/05/23 09:40:33;;;;;;;9.40;1.83;;;27.60;38.80;;;27.98;30.30;94397.41;5062419;28;20466;-57
2022/05/23 09:49:09;;;;;;;3.90;1.97;;;27.30;39.50;;;27.74;30.18;94408.59;5048745;28;20487;-55
2022/05/23 09:51:54;;;;;;;11.77;1.70;;;27.30;39.40;;;27.67;30.77;94408.81;5053999;28;20572;-57
2022/05/23 09:54:24;;;;;;;1.23;1.13;;;27.20;39.70;;;27.58;30.86;94409.56;5058384;28;20470;-55
2022/05/23 09:56:51;;;;;;;2.90;1.63;;;27.10;40.00;;;27.61;31.42;94406.34;5057584;28;20450;-55
2022/05/23 09:59:28;;;;;;;10.43;1.90;;;27.10;40.60;;;27.85;32.02;94404.88;5053939;28;20475;-57
2022/05/23 10:01:58;;;;;;;3.20;2.07;;;27.20;41.40;;;28.17;31.41;94397.81;5042475;28;20524;-57
2022/05/23 10:04:29;;;;;;;2.40;1.73;;;27.50;41.20;;;28.47;31.12;94396.34;5050213;28;21005;-56
2022/05/23 10:06:57;;;;;;;2.83;1.83;;;27.80;41.00;;;28.72;31.66;94395.66;5054968;28;21021;-57
2022/05/23 10:09:31;;;;;;;1.80;1.70;;;28.00;40.80;;;28.97;30.23;94401.16;5055701;28;20487;-55
2022/05/23 10:12:00;;;;;;;3.43;1.53;;;28.30;40.00;;;29.17;30.49;94390.63;5047910;28;20466;-56
2022/05/23 10:14:43;;;;;;;2.57;1.23;;;28.50;39.20;;;29.33;29.86;94387.69;5049581;28;20471;-57
2022/05/23 10:17:10;;;;;;;2.63;1.87;;;28.70;38.60;;;29.48;29.34;94386.06;5046460;28;20593;-57
2022/05/23 10:19:40;;;;;;;1.57;1.43;;;28.80;38.60;;;29.62;29.90;94386.34;5056376;28;20868;-54
2022/05/23 10:22:16;;;;;;;5.87;2.00;;;29.00;38.60;;;29.76;29.02;94397.47;5052584;28;20450;-57
2022/05/23 10:24:54;;;;;;;6.23;1.57;;;29.10;38.40;;;29.82;28.46;94385.56;5049047;28;20523;-57
2022/05/23 10:27:38;;;;;;;11.57;2.00;;;29.20;37.80;;;29.87;27.50;94388.28;5049753;28;20439;-56
2022/05/23 10:30:08;;;;;;;3.70;1.60;;;29.30;37.10;;;29.77;27.39;94375.50;5044991;28;21022;-57
2022/05/23 10:32:41;;;;;;;5.47;1.60;;;29.20;35.90;;;29.68;28.31;94375.25;5052220;28;20452;-55
2022/05/23 10:35:19;;;;;;;3.67;2.00;;;29.20;37.00;;;29.63;29.50;94377.94;5052723;28;20473;-57
2022/05/23 10:37:46;;;;;;;3.20;1.57;;;29.10;37.90;;;29.69;28.95;94365.22;5049706;28;20454;-55
2022/05/23 10:43:09;;;;;;;2.90;1.60;;;29.20;37.10;;;29.77;28.93;94366.56;5049167;28;20447;-57
2022/05/23 10:45:41;;;;;;;2.50;1.50;;;29.20;37.40;;;29.73;28.95;94355.47;5049587;28;20462;-56
2022/05/23 10:48:40;;;;;;;6.60;1.40;;;29.20;37.60;;;29.76;27.93;94354.09;5051797;28;20451;-57
2022/05/23 10:51:24;;;;;;;4.93;1.80;;;29.20;37.00;;;29.77;28.37;94355.72;5046157;28;21009;-58
2022/05/23 10:54:11;;;;;;;6.07;1.23;;;29.20;37.40;;;29.75;28.22;94345.16;5044867;28;20923;-57
2022/05/23 10:56:58;;;;;;;3.30;2.50;;;29.20;36.90;;;29.71;27.44;94351.38;5045137;28;20454;-58
2022/05/23 10:59:34;;;;;;;6.50;1.47;;;29.20;36.30;;;29.67;29.18;94357.34;5051233;28;21030;-58
2022/05/23 11:02:28;;;;;;;1.70;1.27;;;29.10;37.50;;;29.69;28.31;94352.47;5049909;28;20966;-57
2022/05/23 11:05:03;;;;;;;2.43;1.47;;;29.10;37.10;;;29.73;28.38;94360.06;5049555;28;20475;-57
2022/05/23 11:08:09;;;;;;;1.47;1.37;;;29.10;37.10;;;29.80;28.22;94344.34;5038888;28;20477;-57
2022/05/23 11:10:42;;;;;;;3.50;1.60;;;29.20;37.30;;;29.77;29.17;94356.53;5010743;28;20494;-57
2022/05/23 11:13:30;;;;;;;1.60;1.50;;;29.20;37.40;;;29.76;28.44;94349.50;5050380;28;20553;-58
2022/05/23 11:16:13;;;;;;;2.73;1.77;;;29.20;37.40;;;29.72;28.22;94356.53;5046870;28;20545;-57
2022/05/23 11:18:55;;;;;;;2.13;1.13;;;29.20;36.90;;;29.67;28.70;94340.28;5047380;28;20821;-55